createdAt,value
2023-05-03T00:01:01.652Z,100.00
2023-05-03T00:02:04.775Z,100.00
2023-05-03T00:03:11.141Z,100.00
2023-05-03T00:04:15.278Z,100.00
2023-05-03T00:05:20.353Z,100.00
2023-05-03T00:06:22.629Z,100.00
2023-05-03T00:07:27.598Z,100.00
2023-05-03T00:08:29.790Z,100.00
2023-05-03T00:09:37.016Z,100.00
2023-05-03T00:10:39.792Z,100.00
2023-05-03T00:11:44.927Z,100.00
2023-05-03T00:12:49.682Z,100.00
2023-05-03T00:13:54.368Z,100.00
2023-05-03T00:14:56.805Z,100.00
2023-05-03T00:16:02.054Z,100.00
2023-05-03T00:17:04.624Z,100.00
2023-05-03T00:18:09.973Z,100.00
2023-05-03T00:19:24.192Z,100.00
2023-05-03T00:20:33.520Z,100.00
2023-05-03T00:21:35.766Z,100.00
2023-05-03T00:22:40.600Z,100.00
2023-05-03T00:23:42.755Z,100.00
2023-05-03T00:24:47.692Z,100.00
2023-05-03T00:25:52.911Z,100.00
2023-05-03T00:26:57.813Z,100.00
2023-05-03T00:28:02.585Z,100.00
2023-05-03T00:29:07.507Z,100.00
2023-05-03T00:30:10.665Z,100.00
2023-05-03T00:31:15.450Z,100.00
2023-05-03T00:32:17.840Z,100.00
2023-05-03T00:33:22.617Z,100.00
2023-05-03T00:34:24.705Z,100.00
2023-05-03T00:35:30.602Z,100.00
2023-05-03T00:36:33.849Z,100.00
2023-05-03T00:37:40.603Z,100.00
2023-05-03T00:38:43.633Z,100.00
2023-05-03T00:39:48.362Z,100.00
2023-05-03T00:40:54.671Z,100.00
2023-05-03T00:42:00.577Z,100.00
2023-05-03T00:43:05.321Z,100.00
2023-05-03T00:44:11.851Z,100.00
2023-05-03T00:45:14.034Z,100.00
2023-05-03T00:46:19.100Z,100.00
2023-05-03T00:47:23.101Z,100.00
2023-05-03T00:48:28.278Z,100.00
2023-05-03T00:49:30.866Z,100.00
2023-05-03T00:50:36.205Z,100.00
2023-05-03T00:51:38.471Z,100.00
2023-05-03T00:52:44.506Z,100.00
2023-05-03T00:53:47.140Z,100.00
2023-05-03T00:54:52.368Z,100.00
2023-05-03T00:55:55.677Z,100.00
2023-05-03T00:57:02.337Z,100.00
2023-05-03T00:58:07.131Z,100.00
2023-05-03T00:59:12.851Z,100.00
2023-05-03T01:00:19.519Z,100.00
2023-05-03T01:01:25.478Z,100.00
2023-05-03T01:02:28.412Z,100.00
2023-05-03T01:03:33.704Z,100.00
2023-05-03T01:04:37.427Z,100.00
2023-05-03T01:05:53.317Z,100.00
2023-05-03T01:07:08.566Z,100.00
2023-05-03T01:08:23.662Z,100.00
2023-05-03T01:09:34.887Z,100.00
2023-05-03T01:10:52.730Z,100.00
2023-05-03T01:12:07.341Z,100.00
2023-05-03T01:13:25.906Z,100.00
2023-05-03T01:14:35.549Z,100.00
2023-05-03T01:15:49.088Z,100.00
2023-05-03T01:16:56.995Z,100.00
2023-05-03T01:18:10.478Z,100.00
2023-05-03T01:19:26.776Z,100.00
2023-05-03T01:20:31.255Z,100.00
2023-05-03T01:21:37.509Z,100.00
2023-05-03T01:22:47.360Z,100.00
2023-05-03T01:23:59.974Z,100.00
2023-05-03T01:25:07.966Z,100.00
2023-05-03T01:26:22.727Z,100.00
2023-05-03T01:27:24.907Z,100.00
2023-05-03T01:28:29.905Z,100.00
2023-05-03T01:29:32.313Z,100.00
2023-05-03T01:30:37.800Z,100.00
2023-05-03T01:31:44.679Z,100.00
2023-05-03T01:32:57.639Z,100.00
2023-05-03T01:34:17.225Z,100.00
2023-05-03T01:35:26.932Z,100.00
2023-05-03T01:36:35.760Z,100.00
2023-05-03T01:37:39.513Z,100.00
2023-05-03T01:38:45.364Z,100.00
2023-05-03T01:39:55.048Z,100.00
2023-05-03T01:41:05.410Z,100.00
2023-05-03T01:42:07.869Z,100.00
2023-05-03T01:43:16.501Z,100.00
2023-05-03T01:44:19.884Z,100.00
2023-05-03T01:45:25.784Z,100.00
2023-05-03T01:46:28.068Z,100.00
2023-05-03T01:47:33.590Z,100.00
2023-05-03T01:48:35.787Z,100.00
2023-05-03T01:49:40.758Z,100.00
2023-05-03T01:50:42.989Z,100.00
2023-05-03T01:51:48.080Z,100.00
2023-05-03T01:52:52.725Z,100.00
2023-05-03T01:53:57.736Z,100.00
2023-05-03T01:55:00.449Z,100.00
2023-05-03T01:56:09.390Z,100.00
2023-05-03T01:57:12.748Z,100.00
2023-05-03T01:58:17.540Z,100.00
2023-05-03T01:59:19.696Z,100.00
2023-05-03T02:00:25.087Z,100.00
2023-05-03T02:01:27.354Z,100.00
2023-05-03T02:02:32.125Z,100.00
2023-05-03T02:03:34.543Z,100.00
2023-05-03T02:04:39.813Z,100.00
2023-05-03T02:05:43.051Z,100.00
2023-05-03T02:06:48.052Z,100.00
2023-05-03T02:07:50.304Z,100.00
2023-05-03T02:08:57.483Z,100.00
2023-05-03T02:09:59.528Z,100.00
2023-05-03T02:11:07.358Z,100.00
2023-05-03T02:12:10.214Z,100.00
2023-05-03T02:13:16.780Z,100.00
2023-05-03T02:14:19.221Z,100.00
2023-05-03T02:15:24.364Z,100.00
2023-05-03T02:16:29.699Z,100.00
2023-05-03T02:17:32.212Z,100.00
2023-05-03T02:18:37.693Z,100.00
2023-05-03T02:19:39.827Z,100.00
2023-05-03T02:20:48.530Z,100.00
2023-05-03T02:21:52.080Z,100.00
2023-05-03T02:22:57.165Z,100.00
2023-05-03T02:24:00.152Z,100.00
2023-05-03T02:25:05.494Z,100.00
2023-05-03T02:26:13.180Z,100.00
2023-05-03T02:27:16.022Z,100.00
2023-05-03T02:28:23.565Z,100.00
2023-05-03T02:29:25.845Z,100.00
2023-05-03T02:30:30.840Z,100.00
2023-05-03T02:31:33.291Z,100.00
2023-05-03T02:32:38.470Z,100.00
2023-05-03T02:33:40.880Z,100.00
2023-05-03T02:34:47.622Z,100.00
2023-05-03T02:35:51.084Z,100.00
2023-05-03T02:36:56.051Z,100.00
2023-05-03T02:37:58.298Z,100.00
2023-05-03T02:39:17.395Z,100.00
2023-05-03T02:40:19.702Z,100.00
2023-05-03T02:41:27.615Z,100.00
2023-05-03T02:42:29.768Z,100.00
2023-05-03T02:43:34.746Z,100.00
2023-05-03T02:44:36.964Z,100.00
2023-05-03T02:45:41.818Z,100.00
2023-05-03T02:46:44.118Z,100.00
2023-05-03T02:47:49.262Z,100.00
2023-05-03T02:48:51.831Z,100.00
2023-05-03T02:49:56.850Z,100.00
2023-05-03T02:51:01.514Z,100.00
2023-05-03T02:52:06.666Z,100.00
2023-05-03T02:53:09.068Z,100.00
2023-05-03T02:54:13.922Z,100.00
2023-05-03T02:55:16.911Z,100.00
2023-05-03T02:56:21.886Z,100.00
2023-05-03T02:57:27.443Z,100.00
2023-05-03T02:58:34.262Z,100.00
2023-05-03T02:59:37.150Z,100.00
2023-05-03T03:00:42.171Z,100.00
2023-05-03T03:01:46.284Z,100.00
2023-05-03T03:02:51.475Z,100.00
2023-05-03T03:03:53.930Z,100.00
2023-05-03T03:05:00.593Z,100.00
2023-05-03T03:06:03.199Z,100.00
2023-05-03T03:07:12.029Z,100.00
2023-05-03T03:08:14.229Z,100.00
2023-05-03T03:09:19.307Z,100.00
2023-05-03T03:10:21.545Z,100.00
2023-05-03T03:11:27.087Z,100.00
2023-05-03T03:12:31.967Z,100.00
2023-05-03T03:13:40.010Z,100.00
2023-05-03T03:14:44.274Z,100.00
2023-05-03T03:15:49.094Z,100.00
2023-05-03T03:16:53.929Z,100.00
2023-05-03T03:17:59.006Z,100.00
2023-05-03T03:19:01.219Z,100.00
2023-05-03T03:20:07.754Z,100.00
2023-05-03T03:21:10.098Z,100.00
2023-05-03T03:22:15.039Z,100.00
2023-05-03T03:23:17.266Z,100.00
2023-05-03T03:24:22.497Z,100.00
2023-05-03T03:25:24.827Z,100.00
2023-05-03T03:26:29.887Z,100.00
2023-05-03T03:27:35.244Z,100.00
2023-05-03T03:28:40.912Z,100.00
2023-05-03T03:29:43.078Z,100.00
2023-05-03T03:30:49.851Z,100.00
2023-05-03T03:31:52.274Z,100.00
2023-05-03T03:32:57.246Z,100.00
2023-05-03T03:33:59.358Z,100.00
2023-05-03T03:35:05.968Z,100.00
2023-05-03T03:36:11.590Z,100.00
2023-05-03T03:37:16.310Z,100.00
2023-05-03T03:38:18.460Z,100.00
2023-05-03T03:39:27.096Z,100.00
2023-05-03T03:40:29.159Z,100.00
2023-05-03T03:41:34.045Z,100.00
2023-05-03T03:42:40.080Z,100.00
2023-05-03T03:43:45.300Z,100.00
2023-05-03T03:44:47.586Z,100.00
2023-05-03T03:45:52.539Z,100.00
2023-05-03T03:46:54.702Z,100.00
2023-05-03T03:47:59.921Z,100.00
2023-05-03T03:49:02.031Z,100.00
2023-05-03T03:50:07.721Z,100.00
2023-05-03T03:51:09.801Z,100.00
2023-05-03T03:52:14.767Z,100.00
2023-05-03T03:53:16.924Z,100.00
2023-05-03T03:54:21.829Z,100.00
2023-05-03T03:55:24.094Z,100.00
2023-05-03T03:56:29.055Z,100.00
2023-05-03T03:57:32.138Z,100.00
2023-05-03T03:58:39.490Z,100.00
2023-05-03T03:59:41.606Z,100.00
2023-05-03T04:00:46.777Z,100.00
2023-05-03T04:01:48.909Z,100.00
2023-05-03T04:02:55.556Z,100.00
2023-05-03T04:03:58.151Z,100.00
2023-05-03T04:05:03.002Z,100.00
2023-05-03T04:06:05.655Z,100.00
2023-05-03T04:07:12.021Z,100.00
2023-05-03T04:08:14.137Z,100.00
2023-05-03T04:09:19.101Z,100.00
2023-05-03T04:10:21.283Z,100.00
2023-05-03T04:11:26.227Z,100.00
2023-05-03T04:12:28.873Z,100.00
2023-05-03T04:13:34.130Z,100.00
2023-05-03T04:14:38.861Z,100.00
2023-05-03T04:15:43.895Z,100.00
2023-05-03T04:16:45.970Z,100.00
2023-05-03T04:17:51.010Z,100.00
2023-05-03T04:18:53.334Z,100.00
2023-05-03T04:19:58.343Z,100.00
2023-05-03T04:21:00.896Z,100.00
2023-05-03T04:22:05.968Z,100.00
2023-05-03T04:23:08.156Z,100.00
2023-05-03T04:24:14.360Z,100.00
2023-05-03T04:25:17.510Z,100.00
2023-05-03T04:26:31.200Z,100.00
2023-05-03T04:27:34.554Z,100.00
2023-05-03T04:28:39.606Z,100.00
2023-05-03T04:29:45.035Z,100.00
2023-05-03T04:30:50.129Z,100.00
2023-05-03T04:31:52.394Z,100.00
2023-05-03T04:33:00.247Z,100.00
2023-05-03T04:34:05.057Z,100.00
2023-05-03T04:35:10.768Z,100.00
2023-05-03T04:36:19.110Z,100.00
2023-05-03T04:37:22.656Z,100.00
2023-05-03T04:38:27.380Z,100.00
2023-05-03T04:39:29.834Z,100.00
2023-05-03T04:40:34.939Z,100.00
2023-05-03T04:41:39.791Z,100.00
2023-05-03T04:42:43.972Z,100.00
2023-05-03T04:43:49.503Z,100.00
2023-05-03T04:44:54.618Z,100.00
2023-05-03T04:45:59.745Z,100.00
2023-05-03T04:47:03.015Z,100.00
2023-05-03T04:48:09.561Z,100.00
2023-05-03T04:49:11.632Z,100.00
2023-05-03T04:50:16.787Z,100.00
2023-05-03T04:51:21.558Z,100.00
2023-05-03T04:52:23.723Z,100.00
2023-05-03T04:53:29.497Z,100.00
2023-05-03T04:54:32.549Z,100.00
2023-05-03T04:55:37.418Z,100.00
2023-05-03T04:56:39.575Z,100.00
2023-05-03T04:57:45.814Z,100.00
2023-05-03T04:58:47.920Z,100.00
2023-05-03T04:59:54.234Z,100.00
2023-05-03T05:00:59.007Z,100.00
2023-05-03T05:02:04.075Z,100.00
2023-05-03T05:03:06.683Z,100.00
2023-05-03T05:04:11.918Z,100.00
2023-05-03T05:05:14.217Z,100.00
2023-05-03T05:06:18.983Z,100.00
2023-05-03T05:07:21.168Z,100.00
2023-05-03T05:08:26.264Z,100.00
2023-05-03T05:09:31.328Z,100.00
2023-05-03T05:10:40.376Z,100.00
2023-05-03T05:11:42.585Z,100.00
2023-05-03T05:12:47.721Z,100.00
2023-05-03T05:13:49.997Z,100.00
2023-05-03T05:14:54.844Z,100.00
2023-05-03T05:15:59.999Z,100.00
2023-05-03T05:17:04.952Z,100.00
2023-05-03T05:18:10.721Z,100.00
2023-05-03T05:19:13.298Z,100.00
2023-05-03T05:20:19.071Z,100.00
2023-05-03T05:21:21.351Z,100.00
2023-05-03T05:22:26.339Z,100.00
2023-05-03T05:23:28.484Z,100.00
2023-05-03T05:24:33.250Z,100.00
2023-05-03T05:25:35.338Z,100.00
2023-05-03T05:26:40.228Z,100.00
2023-05-03T05:27:45.250Z,100.00
2023-05-03T05:28:48.468Z,100.00
2023-05-03T05:29:55.424Z,100.00
2023-05-03T05:31:00.227Z,100.00
2023-05-03T05:32:06.247Z,100.00
2023-05-03T05:33:08.818Z,100.00
2023-05-03T05:34:14.021Z,100.00
2023-05-03T05:35:17.998Z,100.00
2023-05-03T05:36:22.736Z,100.00
2023-05-03T05:37:30.958Z,100.00
2023-05-03T05:38:33.125Z,100.00
2023-05-03T05:39:37.882Z,100.00
2023-05-03T05:40:40.090Z,100.00
2023-05-03T05:41:44.864Z,100.00
2023-05-03T05:42:48.768Z,100.00
2023-05-03T05:43:55.503Z,100.00
2023-05-03T05:45:00.317Z,100.00
2023-05-03T05:46:08.627Z,100.00
2023-05-03T05:47:13.866Z,100.00
2023-05-03T05:48:16.161Z,100.00
2023-05-03T05:49:21.574Z,100.00
2023-05-03T05:50:26.764Z,100.00
2023-05-03T05:51:32.012Z,100.00
2023-05-03T05:52:34.215Z,100.00
2023-05-03T05:53:39.144Z,100.00
2023-05-03T05:54:43.919Z,100.00
2023-05-03T05:55:46.070Z,100.00
2023-05-03T05:56:51.240Z,100.00
2023-05-03T05:57:53.523Z,100.00
2023-05-03T05:58:58.680Z,100.00
2023-05-03T06:00:03.468Z,100.00
2023-05-03T06:01:11.211Z,100.00
2023-05-03T06:02:17.113Z,100.00
2023-05-03T06:03:22.145Z,100.00
2023-05-03T06:04:27.277Z,100.00
2023-05-03T06:05:32.237Z,100.00
2023-05-03T06:06:40.982Z,100.00
2023-05-03T06:07:43.217Z,100.00
2023-05-03T06:08:50.388Z,100.00
2023-05-03T06:09:52.570Z,100.00
2023-05-03T06:10:57.452Z,100.00
2023-05-03T06:11:59.504Z,100.00
2023-05-03T06:13:05.071Z,100.00
2023-05-03T06:14:09.756Z,100.00
2023-05-03T06:15:17.736Z,100.00
2023-05-03T06:16:25.446Z,100.00
2023-05-03T06:17:27.942Z,100.00
2023-05-03T06:18:32.829Z,100.00
2023-05-03T06:19:34.900Z,100.00
2023-05-03T06:20:39.813Z,100.00
2023-05-03T06:21:41.971Z,100.00
2023-05-03T06:22:47.178Z,100.00
2023-05-03T06:23:49.409Z,100.00
2023-05-03T06:24:58.176Z,100.00
2023-05-03T06:26:00.292Z,100.00
2023-05-03T06:27:05.286Z,100.00
2023-05-03T06:28:07.357Z,100.00
2023-05-03T06:29:12.159Z,100.00
2023-05-03T06:30:16.332Z,100.00
2023-05-03T06:31:21.531Z,100.00
2023-05-03T06:32:29.390Z,100.00
2023-05-03T06:33:34.134Z,100.00
2023-05-03T06:34:36.556Z,100.00
2023-05-03T06:35:41.435Z,100.00
2023-05-03T06:36:46.428Z,100.00
2023-05-03T06:37:48.684Z,100.00
2023-05-03T06:38:53.379Z,100.00
2023-05-03T06:39:55.573Z,100.00
2023-05-03T06:41:00.286Z,100.00
2023-05-03T06:42:05.276Z,100.00
2023-05-03T06:43:07.679Z,100.00
2023-05-03T06:44:12.642Z,100.00
2023-05-03T06:45:14.888Z,100.00
2023-05-03T06:46:21.134Z,100.00
2023-05-03T06:47:26.100Z,100.00
2023-05-03T06:48:31.404Z,100.00
2023-05-03T06:49:36.468Z,100.00
2023-05-03T06:50:39.465Z,100.00
2023-05-03T06:51:44.322Z,100.00
2023-05-03T06:52:49.317Z,100.00
2023-05-03T06:53:52.450Z,100.00
2023-05-03T06:54:57.201Z,100.00
2023-05-03T06:56:03.855Z,100.00
2023-05-03T06:57:06.275Z,100.00
2023-05-03T06:58:12.188Z,100.00
2023-05-03T06:59:17.075Z,100.00
2023-05-03T07:00:23.584Z,100.00
2023-05-03T07:01:25.737Z,100.00
2023-05-03T07:02:33.591Z,100.00
2023-05-03T07:03:40.955Z,100.00
2023-05-03T07:04:46.859Z,100.00
2023-05-03T07:05:49.262Z,100.00
2023-05-03T07:06:56.704Z,100.00
2023-05-03T07:07:59.122Z,100.00
2023-05-03T07:09:05.835Z,100.00
2023-05-03T07:10:08.643Z,100.00
2023-05-03T07:11:13.905Z,100.00
2023-05-03T07:12:16.659Z,100.00
2023-05-03T07:13:21.674Z,100.00
2023-05-03T07:14:24.488Z,100.00
2023-05-03T07:15:29.452Z,100.00
2023-05-03T07:16:31.665Z,100.00
2023-05-03T07:17:39.301Z,100.00
2023-05-03T07:18:41.465Z,100.00
2023-05-03T07:19:46.216Z,100.00
2023-05-03T07:20:51.443Z,100.00
2023-05-03T07:21:54.579Z,100.00
2023-05-03T07:22:59.872Z,100.00
2023-05-03T07:24:01.983Z,100.00
2023-05-03T07:25:12.525Z,100.00
2023-05-03T07:26:17.524Z,100.00
2023-05-03T07:27:20.688Z,100.00
2023-05-03T07:28:26.064Z,100.00
2023-05-03T07:29:30.090Z,100.00
2023-05-03T07:30:34.778Z,100.00
2023-05-03T07:31:39.647Z,100.00
2023-05-03T07:32:47.173Z,100.00
2023-05-03T07:33:52.221Z,100.00
2023-05-03T07:34:54.527Z,100.00
2023-05-03T07:35:59.316Z,100.00
2023-05-03T07:37:04.400Z,100.00
2023-05-03T07:38:09.240Z,100.00
2023-05-03T07:39:11.382Z,100.00
2023-05-03T07:40:16.689Z,100.00
2023-05-03T07:41:19.296Z,100.00
2023-05-03T07:42:23.932Z,100.00
2023-05-03T07:43:26.147Z,100.00
2023-05-03T07:44:31.435Z,100.00
2023-05-03T07:45:36.291Z,100.00
2023-05-03T07:46:41.075Z,100.00
2023-05-03T07:47:48.440Z,100.00
2023-05-03T07:48:50.691Z,100.00
2023-05-03T07:49:55.551Z,100.00
2023-05-03T07:51:00.729Z,100.00
2023-05-03T07:52:06.080Z,100.00
2023-05-03T07:53:10.930Z,100.00
2023-05-03T07:54:13.219Z,100.00
2023-05-03T07:55:21.578Z,100.00
2023-05-03T07:56:27.006Z,100.00
2023-05-03T07:57:32.079Z,100.00
2023-05-03T07:58:40.554Z,100.00
2023-05-03T07:59:43.959Z,100.00
2023-05-03T08:00:48.850Z,100.00
2023-05-03T08:01:53.711Z,100.00
2023-05-03T08:03:03.961Z,100.00
2023-05-03T08:04:09.248Z,100.00
2023-05-03T08:05:15.895Z,100.00
2023-05-03T08:06:18.566Z,100.00
2023-05-03T08:07:23.859Z,100.00
2023-05-03T08:08:28.807Z,100.00
2023-05-03T08:09:31.303Z,100.00
2023-05-03T08:10:38.103Z,100.00
2023-05-03T08:11:42.335Z,100.00
2023-05-03T08:12:48.570Z,100.00
2023-05-03T08:13:53.793Z,100.00
2023-05-03T08:14:56.738Z,100.00
2023-05-03T08:16:01.609Z,100.00
2023-05-03T08:17:08.220Z,100.00
2023-05-03T08:18:15.725Z,100.00
2023-05-03T08:19:17.888Z,100.00
2023-05-03T08:20:23.440Z,100.00
2023-05-03T08:21:28.827Z,98.50
2023-05-03T08:22:33.490Z,96.52
2023-05-03T08:23:38.324Z,95.21
2023-05-03T08:24:40.754Z,95.82
2023-05-03T08:25:45.888Z,96.85
2023-05-03T08:26:49.238Z,96.45
2023-05-03T08:27:55.829Z,94.24
2023-05-03T08:28:58.067Z,91.90
2023-05-03T08:30:04.150Z,90.08
2023-05-03T08:31:09.646Z,90.34
2023-05-03T08:32:12.006Z,91.67
2023-05-03T08:33:19.268Z,89.30
2023-05-03T08:34:23.971Z,89.48
2023-05-03T08:35:28.437Z,89.44
2023-05-03T08:36:36.206Z,86.92
2023-05-03T08:37:39.664Z,88.94
2023-05-03T08:38:49.122Z,87.73
2023-05-03T08:39:54.232Z,86.39
2023-05-03T08:41:14.754Z,91.12
2023-05-03T08:42:19.531Z,89.83
2023-05-03T08:43:27.069Z,89.54
2023-05-03T08:44:30.026Z,87.07
2023-05-03T08:45:37.313Z,87.76
2023-05-03T08:46:39.538Z,88.99
2023-05-03T08:47:45.320Z,91.24
2023-05-03T08:48:54.524Z,89.00
2023-05-03T08:49:58.606Z,88.86
2023-05-03T08:51:04.904Z,84.70
2023-05-03T08:52:07.689Z,86.52
2023-05-03T08:53:12.981Z,87.27
2023-05-03T08:54:20.792Z,88.92
2023-05-03T08:55:26.105Z,87.48
2023-05-03T08:56:35.702Z,81.75
2023-05-03T08:57:41.505Z,80.54
2023-05-03T08:58:48.792Z,77.93
2023-05-03T08:59:54.591Z,76.77
2023-05-03T09:00:59.470Z,75.32
2023-05-03T09:02:01.681Z,73.32
2023-05-03T09:03:07.792Z,74.43
2023-05-03T09:04:15.647Z,78.17
2023-05-03T09:05:39.136Z,78.31
2023-05-03T09:06:44.535Z,72.58
2023-05-03T09:08:03.989Z,74.00
2023-05-03T09:09:11.275Z,72.04
2023-05-03T09:10:26.056Z,75.39
2023-05-03T09:11:32.892Z,74.94
2023-05-03T09:12:36.732Z,79.95
2023-05-03T09:13:41.672Z,76.41
2023-05-03T09:14:47.070Z,72.93
2023-05-03T09:15:57.264Z,72.19
2023-05-03T09:17:14.868Z,68.76
2023-05-03T09:18:22.887Z,69.38
2023-05-03T09:19:30.714Z,65.78
2023-05-03T09:20:39.910Z,65.78
2023-05-03T09:21:47.460Z,67.16
2023-05-03T09:22:52.642Z,66.39
2023-05-03T09:23:57.445Z,65.49
2023-05-03T09:25:01.208Z,66.00
2023-05-03T09:26:07.384Z,66.76
2023-05-03T09:27:21.944Z,70.49
2023-05-03T09:28:24.211Z,68.57
2023-05-03T09:29:34.425Z,68.48
2023-05-03T09:30:37.134Z,67.10
2023-05-03T09:32:02.132Z,66.95
2023-05-03T09:33:04.793Z,66.16
2023-05-03T09:34:25.004Z,65.44
2023-05-03T09:35:32.895Z,63.24
2023-05-03T09:36:49.996Z,64.20
2023-05-03T09:37:54.772Z,60.82
2023-05-03T09:39:01.544Z,60.61
2023-05-03T09:40:08.250Z,58.82
2023-05-03T09:41:13.862Z,59.63
2023-05-03T09:42:21.156Z,62.62
2023-05-03T09:43:24.444Z,61.05
2023-05-03T09:44:44.752Z,61.20
2023-05-03T09:45:49.773Z,60.60
2023-05-03T09:47:07.712Z,61.56
2023-05-03T09:48:13.039Z,60.63
2023-05-03T09:49:18.304Z,61.64
2023-05-03T09:50:21.005Z,61.02
2023-05-03T09:51:28.427Z,59.28
2023-05-03T09:52:31.372Z,59.24
2023-05-03T09:53:37.389Z,56.10
2023-05-03T09:54:42.532Z,57.24
2023-05-03T09:55:45.028Z,56.91
2023-05-03T09:56:50.210Z,57.47
2023-05-03T09:57:55.929Z,56.03
2023-05-03T09:59:01.248Z,56.50
2023-05-03T10:00:04.251Z,56.16
2023-05-03T10:01:10.315Z,55.28
2023-05-03T10:02:15.133Z,56.30
2023-05-03T10:03:22.537Z,56.45
2023-05-03T10:04:29.822Z,54.59
2023-05-03T10:05:33.636Z,56.39
2023-05-03T10:06:44.240Z,56.01
2023-05-03T10:07:46.553Z,56.79
2023-05-03T10:08:55.260Z,57.04
2023-05-03T10:09:59.102Z,57.12
2023-05-03T10:11:07.001Z,56.54
2023-05-03T10:12:16.649Z,55.38
2023-05-03T10:13:19.675Z,57.25
2023-05-03T10:14:25.154Z,55.42
2023-05-03T10:15:28.857Z,54.41
2023-05-03T10:16:39.693Z,52.38
2023-05-03T10:17:48.669Z,52.25
2023-05-03T10:18:59.464Z,52.48
2023-05-03T10:20:13.429Z,52.50
2023-05-03T10:21:28.258Z,54.17
2023-05-03T10:22:33.333Z,50.32
2023-05-03T10:23:38.061Z,49.76
2023-05-03T10:25:13.569Z,50.62
2023-05-03T10:26:20.073Z,49.95
2023-05-03T10:27:24.905Z,50.39
2023-05-03T10:28:32.724Z,52.74
2023-05-03T10:29:54.888Z,53.46
2023-05-03T10:30:59.749Z,52.50
2023-05-03T10:32:04.984Z,51.02
2023-05-03T10:33:31.885Z,54.01
2023-05-03T10:34:35.182Z,53.10
2023-05-03T10:35:43.300Z,50.85
2023-05-03T10:36:49.782Z,51.27
2023-05-03T10:38:02.562Z,50.43
2023-05-03T10:39:05.286Z,49.75
2023-05-03T10:40:14.011Z,50.81
2023-05-03T10:41:27.617Z,50.71
2023-05-03T10:42:31.299Z,51.75
2023-05-03T10:43:47.157Z,51.60
2023-05-03T10:44:53.278Z,53.31
2023-05-03T10:45:59.749Z,52.25
2023-05-03T10:47:13.278Z,52.90
2023-05-03T10:48:23.544Z,52.39
2023-05-03T10:49:28.866Z,52.67
2023-05-03T10:50:31.100Z,55.74
2023-05-03T10:51:37.510Z,54.79
2023-05-03T10:52:47.766Z,53.64
2023-05-03T10:53:55.316Z,53.56
2023-05-03T10:55:00.295Z,53.89
2023-05-03T10:56:03.897Z,54.63
2023-05-03T10:57:09.067Z,56.13
2023-05-03T10:58:17.605Z,56.42
2023-05-03T10:59:23.176Z,54.87
2023-05-03T11:00:37.561Z,55.57
2023-05-03T11:01:41.707Z,54.96
2023-05-03T11:03:11.134Z,54.24
2023-05-03T11:04:21.986Z,54.95
2023-05-03T11:05:27.360Z,56.39
2023-05-03T11:06:36.694Z,55.39
2023-05-03T11:07:40.012Z,55.48
2023-05-03T11:08:51.896Z,55.96
2023-05-03T11:09:59.324Z,57.40
2023-05-03T11:11:02.764Z,55.70
2023-05-03T11:12:09.541Z,56.78
2023-05-03T11:13:15.446Z,57.73
2023-05-03T11:14:17.882Z,58.13
2023-05-03T11:15:22.844Z,57.59
2023-05-03T11:16:26.234Z,58.34
2023-05-03T11:17:31.274Z,58.67
2023-05-03T11:18:34.761Z,58.61
2023-05-03T11:19:40.093Z,60.28
2023-05-03T11:20:42.355Z,62.21
2023-05-03T11:21:48.903Z,58.10
2023-05-03T11:22:51.178Z,58.42
2023-05-03T11:23:55.934Z,56.25
2023-05-03T11:25:04.416Z,58.79
2023-05-03T11:26:08.292Z,57.22
2023-05-03T11:27:16.746Z,51.35
2023-05-03T11:28:18.852Z,50.48
2023-05-03T11:29:23.570Z,48.81
2023-05-03T11:30:25.754Z,48.42
2023-05-03T11:31:31.016Z,47.63
2023-05-03T11:32:36.863Z,45.90
2023-05-03T11:33:40.383Z,46.61
2023-05-03T11:34:45.720Z,45.46
2023-05-03T11:35:50.692Z,44.61
2023-05-03T11:36:55.445Z,44.83
2023-05-03T11:37:58.973Z,43.45
2023-05-03T11:39:06.023Z,41.11
2023-05-03T11:40:20.078Z,40.18
2023-05-03T11:41:24.932Z,40.54
2023-05-03T11:42:28.594Z,41.71
2023-05-03T11:43:33.813Z,39.84
2023-05-03T11:44:39.023Z,37.45
2023-05-03T11:45:44.641Z,38.12
2023-05-03T11:46:51.108Z,38.99
2023-05-03T11:47:57.316Z,36.74
2023-05-03T11:48:59.548Z,34.49
2023-05-03T11:50:04.562Z,34.94
2023-05-03T11:51:14.348Z,37.02
2023-05-03T11:52:24.104Z,37.47
2023-05-03T11:53:29.667Z,36.31
2023-05-03T11:54:34.368Z,36.13
2023-05-03T11:55:42.869Z,34.06
2023-05-03T11:56:47.832Z,35.54
2023-05-03T11:57:52.664Z,34.33
2023-05-03T11:58:59.820Z,33.02
2023-05-03T12:00:11.393Z,35.48
2023-05-03T12:01:16.782Z,35.11
2023-05-03T12:02:22.830Z,34.93
2023-05-03T12:03:31.963Z,35.90
2023-05-03T12:04:37.231Z,34.13
2023-05-03T12:05:44.389Z,35.76
2023-05-03T12:06:54.299Z,34.38
2023-05-03T12:08:01.277Z,35.48
2023-05-03T12:09:08.515Z,35.27
2023-05-03T12:10:23.681Z,31.49
2023-05-03T12:11:43.800Z,31.95
2023-05-03T12:13:00.780Z,31.33
2023-05-03T12:14:06.869Z,30.86
2023-05-03T12:15:11.716Z,30.27
2023-05-03T12:16:20.930Z,31.19
2023-05-03T12:17:38.615Z,31.08
2023-05-03T12:18:56.239Z,27.72
2023-05-03T12:20:51.398Z,28.73
2023-05-03T12:22:03.999Z,30.85
2023-05-03T12:23:15.582Z,29.99
2023-05-03T12:24:20.637Z,29.49
2023-05-03T12:25:27.629Z,27.13
2023-05-03T12:26:37.854Z,27.07
2023-05-03T12:27:40.862Z,27.52
2023-05-03T12:28:46.029Z,27.65
2023-05-03T12:29:51.937Z,26.65
2023-05-03T12:30:54.267Z,24.58
2023-05-03T12:32:03.724Z,22.76
2023-05-03T12:33:10.264Z,25.40
2023-05-03T12:34:32.488Z,27.64
2023-05-03T12:35:41.367Z,26.63
2023-05-03T12:36:48.977Z,27.01
2023-05-03T12:39:01.856Z,25.83
2023-05-03T12:41:22.772Z,25.81
2023-05-03T12:42:43.959Z,24.93
2023-05-03T12:43:52.511Z,24.13
2023-05-03T12:45:03.995Z,25.76
2023-05-03T12:47:27.801Z,25.81
2023-05-03T12:48:34.194Z,25.62
2023-05-03T12:49:38.674Z,24.92
2023-05-03T12:50:45.636Z,24.54
2023-05-03T12:52:02.844Z,23.47
2023-05-03T12:53:17.535Z,22.49
2023-05-03T12:54:27.174Z,21.51
2023-05-03T12:55:35.601Z,22.38
2023-05-03T12:56:41.589Z,21.82
2023-05-03T12:58:10.352Z,22.95
2023-05-03T13:00:25.436Z,23.28
2023-05-03T13:03:19.367Z,22.24
2023-05-03T13:05:31.888Z,20.34
2023-05-03T13:06:42.803Z,20.03
2023-05-03T13:07:55.698Z,20.57
2023-05-03T13:09:02.554Z,21.64
2023-05-03T13:11:16.945Z,22.53
2023-05-03T13:12:22.721Z,23.03
2023-05-03T13:13:30.832Z,23.14
2023-05-03T13:14:33.431Z,23.58
2023-05-03T13:15:40.010Z,23.30
2023-05-03T13:16:44.493Z,23.39
2023-05-03T13:17:51.502Z,24.06
2023-05-03T13:19:00.761Z,25.18
2023-05-03T13:20:08.459Z,26.75
2023-05-03T13:21:11.387Z,28.24
2023-05-03T13:22:17.313Z,28.47
2023-05-03T13:23:22.099Z,28.37
2023-05-03T13:24:26.683Z,28.53
2023-05-03T13:25:31.986Z,29.49
2023-05-03T13:26:36.133Z,30.79
2023-05-03T13:27:41.330Z,30.55
2023-05-03T13:28:48.566Z,31.29
2023-05-03T13:29:53.469Z,28.68
2023-05-03T13:30:59.594Z,29.73
2023-05-03T13:32:04.618Z,25.70
2023-05-03T13:33:09.661Z,24.57
2023-05-03T13:34:12.154Z,24.18
2023-05-03T13:35:17.032Z,24.71
2023-05-03T13:36:19.371Z,23.56
2023-05-03T13:37:24.471Z,24.04
2023-05-03T13:38:29.439Z,23.33
2023-05-03T13:39:33.197Z,22.95
2023-05-03T13:40:38.071Z,22.55
2023-05-03T13:41:41.152Z,23.79
2023-05-03T13:42:45.863Z,23.93
2023-05-03T13:43:50.939Z,23.48
2023-05-03T13:44:55.759Z,23.61
2023-05-03T13:46:01.418Z,24.52
2023-05-03T13:47:06.980Z,23.66
2023-05-03T13:48:17.802Z,22.03
2023-05-03T13:49:25.334Z,23.01
2023-05-03T13:50:32.469Z,23.49
2023-05-03T13:51:35.711Z,22.57
2023-05-03T13:52:42.123Z,21.74
2023-05-03T13:53:44.709Z,21.13
2023-05-03T13:54:52.496Z,21.35
2023-05-03T13:55:57.419Z,22.40
2023-05-03T13:57:02.419Z,22.14
2023-05-03T13:58:04.607Z,23.32
2023-05-03T13:59:15.246Z,24.42
2023-05-03T14:00:21.072Z,25.27
2023-05-03T14:01:26.563Z,26.34
2023-05-03T14:02:31.725Z,28.22